createdAt,value
2019-04-04T00:02:00.625Z,11.71
2019-04-04T00:04:30.331Z,11.91
2019-04-04T00:07:01.501Z,11.92
2019-04-04T00:09:33.771Z,11.79
2019-04-04T00:12:06.106Z,11.63
2019-04-04T00:14:36.821Z,11.97
2019-04-04T00:17:06.717Z,12.15
2019-04-04T00:19:36.602Z,12.11
2019-04-04T00:22:06.592Z,12.23
2019-04-04T00:24:39.355Z,12.15
2019-04-04T00:27:08.509Z,12.15
2019-04-04T00:29:38.203Z,12.28
2019-04-04T00:32:07.972Z,12.28
2019-04-04T00:34:37.716Z,12.20
2019-04-04T00:37:07.286Z,12.20
2019-04-04T00:39:37.995Z,12.26
2019-04-04T00:42:08.564Z,12.27
2019-04-04T00:44:41.000Z,12.00
2019-04-04T00:47:10.709Z,11.77
2019-04-04T00:49:40.244Z,11.89
2019-04-04T00:52:10.319Z,11.90
2019-04-04T00:54:43.001Z,11.69
2019-04-04T00:57:13.363Z,11.68
2019-04-04T00:59:43.121Z,11.71
2019-04-04T01:02:12.763Z,11.54
2019-04-04T01:04:47.091Z,11.37
2019-04-04T01:07:16.642Z,11.71
2019-04-04T01:09:47.897Z,11.85
2019-04-04T01:12:17.962Z,11.65
2019-04-04T01:14:47.720Z,11.64
2019-04-04T01:17:17.352Z,11.74
2019-04-04T01:19:48.727Z,11.79
2019-04-04T01:22:18.500Z,11.60
2019-04-04T01:24:48.347Z,11.55
2019-04-04T01:27:17.954Z,11.28
2019-04-04T01:29:47.687Z,11.48
2019-04-04T01:32:17.712Z,11.69
2019-04-04T01:34:47.351Z,11.43
2019-04-04T01:37:17.086Z,11.58
2019-04-04T01:39:46.696Z,11.58
2019-04-04T01:42:16.225Z,11.84
2019-04-04T01:44:45.762Z,11.78
2019-04-04T01:47:17.125Z,11.61
2019-04-04T01:49:46.875Z,11.76
2019-04-04T01:52:16.425Z,11.73
2019-04-04T01:54:45.952Z,11.62
2019-04-04T01:57:15.546Z,11.38
2019-04-04T01:59:45.071Z,11.65
2019-04-04T02:02:17.671Z,11.74
2019-04-04T02:04:46.503Z,11.56
2019-04-04T02:07:16.094Z,11.41
2019-04-04T02:09:48.032Z,11.50
2019-04-04T02:12:17.839Z,11.51
2019-04-04T02:14:47.549Z,11.40
2019-04-04T02:17:17.246Z,11.51
2019-04-04T02:19:46.972Z,11.56
2019-04-04T02:22:16.591Z,11.47
2019-04-04T02:24:46.307Z,11.52
2019-04-04T02:27:15.964Z,11.67
2019-04-04T02:29:45.565Z,11.56
2019-04-04T02:32:16.969Z,11.63
2019-04-04T02:34:46.609Z,11.63
2019-04-04T02:37:16.302Z,11.56
2019-04-04T02:39:46.021Z,11.31
2019-04-04T02:42:15.613Z,11.28
2019-04-04T02:44:45.307Z,11.20
2019-04-04T02:47:17.487Z,11.22
2019-04-04T02:49:46.394Z,11.47
2019-04-04T02:52:15.919Z,11.51
2019-04-04T02:54:45.779Z,11.46
2019-04-04T02:57:15.481Z,11.40
2019-04-04T02:59:45.603Z,11.36
2019-04-04T03:02:15.350Z,11.31
2019-04-04T03:04:46.827Z,11.40
2019-04-04T03:07:16.592Z,11.48
2019-04-04T03:09:46.808Z,11.26
2019-04-04T03:12:20.150Z,11.38
2019-04-04T03:14:50.743Z,11.48
2019-04-04T03:17:20.859Z,11.25
2019-04-04T03:19:50.530Z,11.27
2019-04-04T03:22:20.448Z,11.28
2019-04-04T03:24:50.552Z,11.24
2019-04-04T03:27:25.621Z,11.13
2019-04-04T03:29:51.664Z,11.19
2019-04-04T03:32:21.465Z,11.06
2019-04-04T03:34:51.762Z,10.96
2019-04-04T03:37:21.835Z,10.94
2019-04-04T03:39:53.317Z,10.89
2019-04-04T03:42:23.231Z,10.70
2019-04-04T03:44:54.212Z,10.56
2019-04-04T03:47:24.169Z,10.34
2019-04-04T03:49:56.832Z,10.28
2019-04-04T03:52:24.971Z,10.32
2019-04-04T03:54:56.211Z,10.60
2019-04-04T03:57:26.030Z,10.43
2019-04-04T03:59:55.628Z,10.37
2019-04-04T04:02:25.360Z,10.42
2019-04-04T04:05:00.577Z,10.08
2019-04-04T04:07:26.678Z,10.09
2019-04-04T04:09:59.775Z,10.06
2019-04-04T04:12:29.859Z,9.83
2019-04-04T04:15:00.026Z,9.96
2019-04-04T04:17:30.054Z,9.73
2019-04-04T04:20:03.275Z,9.72
2019-04-04T04:22:30.863Z,9.78
2019-04-04T04:25:03.316Z,9.93
2019-04-04T04:27:33.090Z,9.94
2019-04-04T04:30:05.916Z,9.80
2019-04-04T04:32:37.226Z,9.71
2019-04-04T04:35:08.581Z,9.82
2019-04-04T04:37:38.691Z,9.74
2019-04-04T04:40:13.789Z,9.84
2019-04-04T04:42:40.637Z,9.81
2019-04-04T04:45:12.101Z,9.85
2019-04-04T04:47:41.829Z,9.83
2019-04-04T04:50:11.626Z,9.85
2019-04-04T04:52:41.324Z,9.95
2019-04-04T04:55:12.996Z,9.83
2019-04-04T04:57:42.662Z,9.87
2019-04-04T05:00:14.001Z,9.70
2019-04-04T05:02:44.245Z,9.71
2019-04-04T05:05:14.041Z,9.66
2019-04-04T05:07:43.851Z,9.63
2019-04-04T05:10:18.159Z,9.38
2019-04-04T05:12:47.784Z,9.32
2019-04-04T05:15:21.601Z,9.33
2019-04-04T05:17:51.273Z,9.20
2019-04-04T05:20:20.931Z,9.18
2019-04-04T05:22:50.609Z,9.34
2019-04-04T05:25:22.406Z,9.34
2019-04-04T05:27:52.052Z,9.35
2019-04-04T05:30:21.660Z,9.42
2019-04-04T05:32:53.154Z,9.56
2019-04-04T05:35:22.876Z,9.63
2019-04-04T05:37:52.590Z,9.82
2019-04-04T05:40:23.552Z,9.91
2019-04-04T05:42:54.047Z,10.04
2019-04-04T05:45:23.857Z,10.16
2019-04-04T05:47:56.342Z,10.39
2019-04-04T05:50:25.257Z,10.22
2019-04-04T05:52:55.481Z,10.28
2019-04-04T05:55:26.115Z,10.42
2019-04-04T05:57:56.029Z,10.71
2019-04-04T06:00:27.397Z,10.85
2019-04-04T06:02:57.344Z,10.95
2019-04-04T06:05:31.673Z,10.98
2019-04-04T06:08:00.290Z,11.00
2019-04-04T06:10:30.286Z,11.08
2019-04-04T06:12:59.954Z,11.11
2019-04-04T06:15:32.144Z,11.13
2019-04-04T06:18:01.881Z,11.30
2019-04-04T06:20:31.493Z,11.07
2019-04-04T06:23:01.345Z,11.15
2019-04-04T06:25:34.754Z,11.01
2019-04-04T06:28:03.129Z,11.13
2019-04-04T06:30:43.097Z,10.95
2019-04-04T06:33:06.563Z,11.08
2019-04-04T06:35:39.652Z,11.14
2019-04-04T06:38:08.408Z,11.02
2019-04-04T06:40:38.274Z,11.16
2019-04-04T06:43:11.497Z,11.22
2019-04-04T06:45:39.746Z,11.24
2019-04-04T06:48:10.210Z,11.34
2019-04-04T06:50:42.949Z,11.29
2019-04-04T06:53:11.805Z,11.67
2019-04-04T06:55:41.469Z,11.59
2019-04-04T06:58:16.879Z,11.67
2019-04-04T07:00:48.484Z,11.78
2019-04-04T07:03:20.856Z,11.75
2019-04-04T07:05:50.415Z,11.52
2019-04-04T07:08:20.168Z,11.47
2019-04-04T07:10:57.759Z,11.74
2019-04-04T07:13:26.628Z,11.85
2019-04-04T07:16:06.192Z,11.78
2019-04-04T07:18:25.674Z,11.70
2019-04-04T07:20:55.698Z,11.89
2019-04-04T07:23:28.249Z,11.74
2019-04-04T07:25:57.276Z,11.95
2019-04-04T07:28:30.620Z,12.16
2019-04-04T07:31:01.205Z,12.05
2019-04-04T07:33:31.114Z,12.13
2019-04-04T07:36:01.052Z,12.16
2019-04-04T07:38:31.014Z,12.24
2019-04-04T07:41:00.889Z,12.13
2019-04-04T07:43:30.738Z,12.14
2019-04-04T07:46:15.317Z,12.09
2019-04-04T07:48:32.350Z,12.22
2019-04-04T07:51:02.763Z,12.12
2019-04-04T07:53:34.227Z,12.03
2019-04-04T07:56:04.381Z,12.21
2019-04-04T07:58:34.290Z,12.32
2019-04-04T08:01:04.231Z,12.40
2019-04-04T08:03:34.650Z,12.52
2019-04-04T08:06:04.365Z,12.48
2019-04-04T08:08:34.489Z,12.45
2019-04-04T08:11:04.400Z,12.77
2019-04-04T08:13:34.168Z,12.77
2019-04-04T08:16:03.781Z,12.76
2019-04-04T08:18:33.678Z,12.55
2019-04-04T08:21:05.722Z,12.73
2019-04-04T08:23:36.223Z,12.92
2019-04-04T08:26:06.092Z,13.03
2019-04-04T08:28:36.701Z,13.01
2019-04-04T08:31:09.628Z,13.04
2019-04-04T08:33:39.780Z,12.90
2019-04-04T08:36:09.616Z,12.90
2019-04-04T08:38:42.592Z,12.71
2019-04-04T08:41:12.492Z,12.91
2019-04-04T08:43:46.226Z,12.91
2019-04-04T08:46:16.365Z,12.89
2019-04-04T08:48:54.061Z,12.88
2019-04-04T08:51:23.911Z,12.96
2019-04-04T08:53:53.860Z,12.78
2019-04-04T08:56:23.776Z,12.98
2019-04-04T08:58:53.931Z,13.06
2019-04-04T09:01:23.750Z,13.17
2019-04-04T09:03:53.804Z,12.97
2019-04-04T09:06:23.746Z,13.19
2019-04-04T09:08:53.654Z,13.01
2019-04-04T09:11:23.834Z,12.84
2019-04-04T09:13:53.631Z,12.87
2019-04-04T09:16:23.572Z,13.01
2019-04-04T09:18:53.224Z,13.15
2019-04-04T09:21:26.556Z,12.97
2019-04-04T09:23:56.245Z,12.88
2019-04-04T09:26:26.094Z,13.00
2019-04-04T09:28:55.871Z,12.91
2019-04-04T09:31:25.635Z,12.88
2019-04-04T09:33:55.223Z,12.79
2019-04-04T09:36:25.003Z,12.93
2019-04-04T09:38:54.724Z,12.88
2019-04-04T09:41:24.457Z,12.82
2019-04-04T09:43:55.465Z,13.11
2019-04-04T09:46:25.199Z,13.13
2019-04-04T09:48:55.103Z,12.87
2019-04-04T09:51:24.930Z,12.82
2019-04-04T09:53:54.891Z,12.93
2019-04-04T09:56:24.531Z,12.95
2019-04-04T09:58:55.044Z,13.20
2019-04-04T10:01:25.195Z,13.28
2019-04-04T10:03:54.793Z,13.25
2019-04-04T10:06:25.243Z,13.31
2019-04-04T10:08:54.936Z,13.47
2019-04-04T10:11:24.782Z,13.50
2019-04-04T10:13:56.262Z,13.19
2019-04-04T10:16:26.049Z,13.27
2019-04-04T10:18:55.964Z,13.27
2019-04-04T10:21:25.671Z,13.34
2019-04-04T10:23:55.840Z,13.40
2019-04-04T10:26:25.474Z,13.65
2019-04-04T10:28:55.320Z,13.68
2019-04-04T10:31:25.089Z,13.67
2019-04-04T10:33:54.734Z,13.54
2019-04-04T10:36:24.280Z,13.63
2019-04-04T10:38:53.991Z,13.73
2019-04-04T10:41:23.734Z,13.60
2019-04-04T10:43:53.518Z,13.81
2019-04-04T10:46:23.425Z,13.67
2019-04-04T10:48:53.056Z,13.87
2019-04-04T10:51:25.809Z,13.78
2019-04-04T10:53:55.630Z,13.77
2019-04-04T10:56:25.363Z,13.88
2019-04-04T10:58:55.103Z,14.03
2019-04-04T11:01:24.709Z,14.32
2019-04-04T11:03:55.742Z,14.25
2019-04-04T11:06:25.563Z,14.18
2019-04-04T11:08:55.246Z,14.19
2019-04-04T11:11:25.001Z,14.10
2019-04-04T11:13:57.403Z,14.42
2019-04-04T11:16:30.263Z,14.52
2019-04-04T11:18:58.448Z,14.59
2019-04-04T11:21:28.205Z,14.54
2019-04-04T11:23:58.220Z,14.81
2019-04-04T11:26:30.297Z,14.52
2019-04-04T11:28:59.812Z,14.63
2019-04-04T11:31:30.023Z,14.81
2019-04-04T11:34:00.228Z,14.80
2019-04-04T11:36:29.823Z,14.65
2019-04-04T11:38:59.565Z,14.56
2019-04-04T11:41:29.379Z,14.46
2019-04-04T11:43:58.984Z,14.68
2019-04-04T11:46:28.654Z,14.62
2019-04-04T11:48:59.238Z,14.69
2019-04-04T11:51:29.104Z,14.72
2019-04-04T11:53:59.036Z,14.73
2019-04-04T11:56:29.175Z,14.80
2019-04-04T11:58:59.021Z,14.77
2019-04-04T12:01:30.465Z,14.64
2019-04-04T12:04:00.158Z,14.86
2019-04-04T12:06:29.922Z,14.98
2019-04-04T12:09:01.593Z,14.62
2019-04-04T12:11:33.711Z,14.75
2019-04-04T12:14:04.485Z,14.94
2019-04-04T12:16:34.258Z,14.95
2019-04-04T12:19:03.852Z,15.07
2019-04-04T12:21:33.476Z,14.96
2019-04-04T12:24:03.022Z,14.80
2019-04-04T12:26:32.766Z,14.95
2019-04-04T12:29:02.444Z,15.14
2019-04-04T12:31:32.074Z,15.27
2019-04-04T12:34:02.393Z,15.35
2019-04-04T12:36:32.191Z,15.41
2019-04-04T12:39:01.877Z,15.29
2019-04-04T12:41:31.528Z,15.33
2019-04-04T12:44:01.105Z,15.22
2019-04-04T12:46:30.829Z,15.58
2019-04-04T12:49:04.076Z,15.57
2019-04-04T12:51:33.999Z,15.66
2019-04-04T12:54:03.585Z,16.14
2019-04-04T12:56:33.535Z,16.88
2019-04-04T12:59:03.519Z,17.45
2019-04-04T13:01:33.177Z,17.71
2019-04-04T13:04:02.936Z,17.71
2019-04-04T13:06:32.645Z,17.62
2019-04-04T13:09:11.006Z,17.45
2019-04-04T13:11:40.615Z,17.31
2019-04-04T13:14:10.290Z,17.13
2019-04-04T13:16:40.382Z,17.19
2019-04-04T13:19:10.171Z,16.96
2019-04-04T13:21:40.030Z,17.09
2019-04-04T13:24:09.780Z,17.18
2019-04-04T13:26:39.430Z,17.33
2019-04-04T13:29:11.649Z,17.47
2019-04-04T13:31:42.416Z,17.58
2019-04-04T13:34:12.006Z,17.93
2019-04-04T13:36:41.715Z,18.03
2019-04-04T13:39:16.913Z,18.23
2019-04-04T13:41:49.986Z,18.34
2019-04-04T13:44:23.159Z,17.86
2019-04-04T13:46:51.254Z,17.85
2019-04-04T13:49:20.862Z,17.53
2019-04-04T13:51:50.927Z,17.59
2019-04-04T13:54:22.339Z,17.63
2019-04-04T13:56:52.026Z,17.91
2019-04-04T13:59:21.911Z,18.14
2019-04-04T14:01:51.784Z,17.96
2019-04-04T14:04:24.472Z,17.91
2019-04-04T14:06:52.871Z,17.58
2019-04-04T14:09:22.599Z,17.77
2019-04-04T14:11:52.486Z,18.01
2019-04-04T14:14:22.262Z,18.20
2019-04-04T14:16:52.131Z,18.93
2019-04-04T14:19:21.882Z,19.14
2019-04-04T14:21:51.510Z,19.33
2019-04-04T14:24:21.583Z,19.23
2019-04-04T14:26:51.311Z,19.41
2019-04-04T14:29:27.360Z,19.60
2019-04-04T14:31:53.865Z,19.53
2019-04-04T14:34:23.437Z,19.58
2019-04-04T14:36:53.232Z,19.51
2019-04-04T14:39:25.072Z,19.77
2019-04-04T14:41:54.482Z,19.84
2019-04-04T14:44:24.230Z,20.02
2019-04-04T14:46:56.479Z,20.27
2019-04-04T14:49:26.278Z,20.05
2019-04-04T14:51:56.081Z,20.14
2019-04-04T14:54:29.053Z,20.12
2019-04-04T14:56:58.942Z,19.92
2019-04-04T14:59:28.601Z,19.76
2019-04-04T15:01:58.353Z,19.58
2019-04-04T15:04:28.188Z,19.43
2019-04-04T15:06:58.022Z,19.58
2019-04-04T15:09:28.493Z,19.20
2019-04-04T15:11:58.304Z,19.07
2019-04-04T15:14:27.980Z,18.61
2019-04-04T15:16:57.740Z,18.54
2019-04-04T15:19:27.610Z,18.64
2019-04-04T15:21:57.446Z,18.38
2019-04-04T15:24:27.235Z,18.51
2019-04-04T15:26:57.391Z,18.53
2019-04-04T15:29:27.090Z,18.49
2019-04-04T15:31:56.974Z,18.06
2019-04-04T15:34:26.740Z,17.94
2019-04-04T15:36:56.499Z,17.86
2019-04-04T15:39:26.439Z,17.94
2019-04-04T15:41:56.574Z,17.94
2019-04-04T15:44:26.154Z,17.83
2019-04-04T15:46:55.910Z,17.65
2019-04-04T15:49:25.499Z,17.70
2019-04-04T15:51:55.508Z,17.83
2019-04-04T15:54:25.590Z,17.66
2019-04-04T15:56:55.443Z,17.64
2019-04-04T15:59:25.966Z,17.78
2019-04-04T16:01:55.670Z,17.75
2019-04-04T16:04:25.396Z,17.59
2019-04-04T16:06:55.272Z,17.41
2019-04-04T16:09:25.097Z,17.30
2019-04-04T16:11:54.883Z,17.05
2019-04-04T16:14:24.671Z,17.04
2019-04-04T16:16:55.577Z,17.20
2019-04-04T16:19:25.763Z,17.30
2019-04-04T16:21:55.404Z,17.03
2019-04-04T16:24:25.105Z,16.81
2019-04-04T16:26:55.040Z,16.65
2019-04-04T16:29:24.742Z,16.66
2019-04-04T16:32:00.775Z,16.75
2019-04-04T16:34:30.633Z,16.59
2019-04-04T16:37:00.775Z,16.64
2019-04-04T16:39:30.916Z,16.32
2019-04-04T16:42:02.545Z,16.35
2019-04-04T16:44:32.687Z,16.27
2019-04-04T16:47:04.277Z,16.25
2019-04-04T16:49:33.908Z,16.29
2019-04-04T16:52:03.698Z,16.12
2019-04-04T16:54:33.721Z,15.85
2019-04-04T16:57:03.461Z,15.66
2019-04-04T16:59:33.185Z,15.60
2019-04-04T17:02:03.098Z,15.78
2019-04-04T17:04:35.412Z,15.66
2019-04-04T17:07:05.531Z,15.61
2019-04-04T17:09:36.298Z,15.51
2019-04-04T17:12:14.703Z,15.52
2019-04-04T17:14:37.909Z,15.27
2019-04-04T17:17:07.708Z,15.30
2019-04-04T17:19:37.451Z,15.10
2019-04-04T17:22:07.194Z,14.97
2019-04-04T17:24:37.104Z,14.98
2019-04-04T17:27:06.789Z,14.81
2019-04-04T17:29:36.491Z,14.76
2019-04-04T17:32:06.518Z,14.79
2019-04-04T17:34:36.552Z,14.64
2019-04-04T17:37:06.572Z,14.48
2019-04-04T17:39:36.507Z,14.44
2019-04-04T17:42:06.439Z,14.49
2019-04-04T17:44:36.454Z,14.49
2019-04-04T17:47:06.705Z,14.57
2019-04-04T17:49:36.542Z,14.57
2019-04-04T17:52:06.772Z,14.53
2019-04-04T17:54:36.548Z,14.46
2019-04-04T17:57:06.800Z,14.29
2019-04-04T17:59:36.525Z,14.29
2019-04-04T18:02:06.260Z,14.51
2019-04-04T18:04:47.577Z,14.41
2019-04-04T18:07:07.341Z,14.32
2019-04-04T18:09:41.022Z,14.30
2019-04-04T18:12:11.256Z,14.27
2019-04-04T18:14:40.927Z,14.25
2019-04-04T18:17:10.732Z,13.89
2019-04-04T18:19:40.433Z,13.93
2019-04-04T18:22:10.074Z,13.87
2019-04-04T18:24:39.793Z,13.62
2019-04-04T18:27:09.407Z,13.61
2019-04-04T18:29:39.121Z,13.73
2019-04-04T18:32:08.756Z,13.75
2019-04-04T18:34:38.471Z,13.75
2019-04-04T18:37:09.307Z,13.59
2019-04-04T18:39:39.078Z,13.44
2019-04-04T18:42:08.684Z,13.51
2019-04-04T18:44:38.283Z,13.14
2019-04-04T18:47:07.994Z,13.11
2019-04-04T18:49:37.595Z,13.28
2019-04-04T18:52:07.213Z,12.96
2019-04-04T18:54:37.406Z,12.85
2019-04-04T18:57:07.207Z,12.91
2019-04-04T18:59:36.970Z,12.81
2019-04-04T19:02:07.194Z,12.63
2019-04-04T19:04:36.798Z,12.51
2019-04-04T19:07:06.382Z,12.57
2019-04-04T19:09:36.144Z,12.62
2019-04-04T19:12:05.830Z,12.64
2019-04-04T19:14:35.386Z,12.43
2019-04-04T19:17:09.344Z,12.38
2019-04-04T19:19:39.591Z,12.40
2019-04-04T19:22:09.534Z,12.48
2019-04-04T19:24:39.423Z,12.53
2019-04-04T19:27:09.266Z,12.56
2019-04-04T19:29:38.853Z,12.53
2019-04-04T19:32:08.991Z,12.45
2019-04-04T19:34:38.852Z,12.34
2019-04-04T19:37:08.738Z,12.38
2019-04-04T19:39:38.763Z,12.34
2019-04-04T19:42:08.576Z,12.27
2019-04-04T19:44:38.464Z,12.27
2019-04-04T19:47:08.257Z,12.29
2019-04-04T19:49:37.993Z,12.16
2019-04-04T19:52:08.437Z,12.38
2019-04-04T19:54:38.186Z,12.43
2019-04-04T19:57:08.026Z,12.39
2019-04-04T19:59:37.733Z,12.32
2019-04-04T20:02:07.898Z,12.21
2019-04-04T20:04:37.522Z,12.25
2019-04-04T20:07:07.228Z,12.25
2019-04-04T20:09:36.799Z,12.12
2019-04-04T20:12:06.470Z,12.21
2019-04-04T20:14:36.421Z,12.16
2019-04-04T20:17:06.261Z,12.02
2019-04-04T20:19:35.845Z,11.97
2019-04-04T20:22:05.523Z,12.01
2019-04-04T20:24:36.778Z,12.05
2019-04-04T20:27:06.545Z,11.99
2019-04-04T20:29:36.155Z,11.94
2019-04-04T20:32:25.147Z,11.91
2019-04-04T20:34:54.837Z,11.89
2019-04-04T20:37:24.599Z,11.95
2019-04-04T20:39:55.596Z,11.93
2019-04-04T20:42:26.340Z,11.96
2019-04-04T20:44:56.446Z,11.81
2019-04-04T20:47:26.716Z,11.89
2019-04-04T20:49:56.333Z,11.84
2019-04-04T20:52:26.006Z,11.88
2019-04-04T20:54:55.739Z,11.99
2019-04-04T20:57:25.326Z,11.90
2019-04-04T20:59:54.858Z,11.83
2019-04-04T21:02:24.788Z,11.83
2019-04-04T21:04:54.669Z,11.82
2019-04-04T21:07:24.632Z,11.78
2019-04-04T21:09:54.343Z,11.78
2019-04-04T21:12:23.930Z,11.77
2019-04-04T21:14:53.560Z,11.85
2019-04-04T21:17:23.590Z,11.94
2019-04-04T21:19:53.186Z,11.87
2019-04-04T21:22:27.620Z,11.68
2019-04-04T21:24:54.615Z,11.58
2019-04-04T21:27:24.602Z,11.57
2019-04-04T21:29:54.165Z,11.68
2019-04-04T21:32:23.846Z,11.58
2019-04-04T21:34:53.470Z,11.60
2019-04-04T21:37:25.153Z,11.57
2019-04-04T21:39:54.340Z,11.62
2019-04-04T21:42:23.865Z,11.58
2019-04-04T21:44:53.432Z,11.57
2019-04-04T21:47:23.134Z,11.57
2019-04-04T21:49:52.657Z,11.53
2019-04-04T21:52:22.248Z,11.42
2019-04-04T21:54:51.865Z,11.48
2019-04-04T21:57:21.472Z,11.48
2019-04-04T21:59:51.097Z,11.45
2019-04-04T22:02:20.773Z,11.34
2019-04-04T22:04:50.481Z,11.06
2019-04-04T22:07:20.118Z,11.25
2019-04-04T22:09:50.214Z,11.22
2019-04-04T22:12:19.749Z,11.38
2019-04-04T22:14:49.314Z,11.33
2019-04-04T22:17:18.970Z,11.24
2019-04-04T22:19:48.609Z,11.38
2019-04-04T22:22:18.150Z,11.32
2019-04-04T22:24:47.792Z,11.25
2019-04-04T22:27:17.347Z,11.44
2019-04-04T22:29:46.881Z,11.26
2019-04-04T22:32:16.848Z,11.10
2019-04-04T22:34:46.398Z,11.14
2019-04-04T22:37:15.960Z,10.99
2019-04-04T22:39:45.534Z,10.98
2019-04-04T22:42:15.091Z,11.09
2019-04-04T22:44:45.299Z,10.93
2019-04-04T22:47:14.880Z,11.03
2019-04-04T22:49:44.582Z,11.15
2019-04-04T22:52:14.208Z,11.40
2019-04-04T22:54:45.508Z,11.56
2019-04-04T22:57:15.129Z,11.64
2019-04-04T22:59:44.806Z,11.64
2019-04-04T23:02:14.384Z,11.74
2019-04-04T23:04:43.913Z,11.56
2019-04-04T23:07:13.597Z,11.56
2019-04-04T23:09:43.247Z,11.47
2019-04-04T23:12:14.444Z,11.59
2019-04-04T23:14:48.367Z,11.54
2019-04-04T23:17:16.550Z,11.52
2019-04-04T23:19:46.419Z,11.71
2019-04-04T23:22:15.965Z,11.74
2019-04-04T23:24:45.621Z,11.71
2019-04-04T23:27:15.263Z,11.74
2019-04-04T23:29:45.277Z,11.89
2019-04-04T23:32:14.846Z,11.94
2019-04-04T23:34:44.478Z,12.09
2019-04-04T23:37:14.019Z,12.09
2019-04-04T23:39:44.072Z,12.22
2019-04-04T23:42:13.688Z,11.92
2019-04-04T23:44:43.231Z,11.77
2019-04-04T23:47:14.166Z,11.76
2019-04-04T23:49:43.714Z,11.70
2019-04-04T23:52:13.354Z,11.30
2019-04-04T23:54:43.062Z,11.41
2019-04-04T23:57:12.780Z,11.32
2019-04-04T23:59:42.376Z,11.39
